Flight Track Log - Related Links

Times and Time Zones

All times are in EDT time to prevent confusion due to time zone crossing. See the UAL3272 flight status page for this flight to view local times or setup timezone preferences in your user account.

Time Position Orientation Groundspeed Altitude Reporting Facility
EDT Latitude Longitude Course Direction KTS MPH feet Rate Location/Type
Fri 06:57:36 AM 43.6333 -79.6333 216° Southwest 170 196 2,400  Level Toronto Center
Fri 06:58:36 AM 43.5833 -79.6833 216° Southwest 240 276 5,400 2,300 Climbing Toronto Center
Fri 06:59:36 AM 43.5000 -79.7000 188° South 280 322 7,000 1,400 Climbing Toronto Center
Fri 07:00:36 AM 43.4167 -79.7000 180° South 270 311 8,200 2,150 Climbing Toronto Center
Fri 07:01:36 AM 43.3500 -79.7000 180° South 280 322 11,300 2,650 Climbing Toronto Center
Fri 07:02:36 AM 43.2667 -79.7167 188° South 300 345 13,500 2,100 Climbing Toronto Center
Fri 07:03:36 AM 43.1667 -79.7167 180° South 330 380 15,500 1,950 Climbing Toronto Center
Fri 07:04:36 AM 43.0833 -79.7167 180° South 340 391 17,400 1,250 Climbing Toronto Center
Fri 07:05:36 AM 42.9833 -79.7500 194° South 350 403 18,000 300 Climbing Toronto Center
Fri 07:06:36 AM 42.9000 -79.8000 204° Southwest 350 403 18,000  Level Toronto Center
Fri 07:07:36 AM 42.8000 -79.8333 194° South 350 403 18,000  Level Toronto Center
Fri 07:08:27 AM 42.7353 -79.8992 217° Southwest 357 411 18,000  Level Cleveland Center
Fri 07:09:27 AM 42.6461 -79.9508 203° Southwest 351 404 18,000  Level Cleveland Center
Fri 07:10:27 AM 42.5506 -80.0025 202° Southwest 364 419 18,000  Level Cleveland Center
Fri 07:11:27 AM 42.4589 -80.0542 203° Southwest 369 425 18,000  Level Cleveland Center
Fri 07:12:27 AM 42.3864 -80.1333 219° Southwest 351 404 18,000  Level Cleveland Center
Fri 07:13:27 AM 42.3136 -80.2208 222° Southwest 351 404 18,000  Level Cleveland Center
Fri 07:14:27 AM 42.2411 -80.3083 222° Southwest 351 404 18,000  Level Cleveland Center
Fri 07:15:27 AM 42.1725 -80.3928 222° Southwest 351 404 18,000  Level Cleveland Center
Fri 07:16:27 AM 42.0994 -80.4797 221° Southwest 351 404 18,000  Level Cleveland Center
Fri 07:17:27 AM 42.0289 -80.5636 221° Southwest 351 404 18,000  Level Cleveland Center
Fri 07:18:27 AM 41.9642 -80.6419 222° Southwest 351 404 18,000  Level Cleveland Center
Fri 07:19:27 AM 41.8889 -80.7281 220° Southwest 351 404 18,000 -250 Level Cleveland Center
Fri 07:20:27 AM 41.8158 -80.8117 220° Southwest 351 404 17,500 -1,250 Descending Cleveland Center
Fri 07:21:27 AM 41.7469 -80.8919 221° Southwest 351 404 15,500 -2,000 Descending Cleveland Center
Fri 07:22:27 AM 41.6778 -80.9778 223° Southwest 345 397 13,500 -2,138 Descending Cleveland Center
Fri 07:22:54 AM 41.6422 -81.0167 219° Southwest 328 377 12,400 -2,235 Descending Cleveland Center
Fri 07:23:18 AM 41.6172 -81.0469 222° Southwest 322 371 11,600 -1,694 Descending Cleveland Center
Fri 07:24:19 AM 41.5544 -81.1186 221° Southwest 287 330 10,000 -744 Descending Cleveland Center
Fri 07:25:27 AM 41.5058 -81.2125 235° Southwest 281 323 10,000  Level Cleveland Center
Fri 07:26:26 AM 41.4969 -81.3067 263° West 250 288 10,000  Level Cleveland Center
Fri 07:27:27 AM 41.4839 -81.3953 259° West 247 284 10,000  Level Cleveland Center
Fri 07:27:27 AM 41.4839 -81.3953 259° West 248 285 10,000  Level Cleveland Center
Fri 07:28:27 AM 41.4708 -81.4864 259° West 253 291 10,000 -200 Level Cleveland Center
Fri 07:29:27 AM 41.4617 -81.5722 262° West 253 291 9,600 -900 Descending Cleveland Center
Fri 07:30:27 AM 41.4506 -81.6525 260° West 235 270 8,200 -1,300 Descending Cleveland Center
Fri 07:31:27 AM 41.4103 -81.7239 233° Southwest 230 265 7,000 -884 Descending Cleveland Center
Fri 07:32:36 AM 41.3553 -81.8031 227° Southwest 235 270 6,300 -1,256 Descending Cleveland Center
Fri 07:33:36 AM 41.3128 -81.8658 228° Southwest 232 267 4,300 -1,559 Descending Cleveland Center
Fri 07:34:43 AM 41.3014 -81.9403 259° West 199 229 3,000 -738 Descending Cleveland Center
Fri 07:35:38 AM 41.3367 -81.9603 337° Northwest 138 159 2,800 -574 Descending Cleveland Center
Fri 07:36:38 AM 41.3622 -81.9303 41° Northeast 122 140 1,900 -793 Descending Cleveland Center
Fri 07:37:39 AM 41.3875 -81.8978 44° Northeast 127 146 1,200 -689 Descending Cleveland Center

Login

Don't have an account? Register now (free) for customized features, flight alerts, and more!